Time;durP1;ratioP1;P1;durP2;ratioP2;P2;SDS_P1;SDS_P2;PMS_P1;PMS_P2;Temp;Humidity;BMP_temperature;BMP_pressure;BME280_temperature;BME280_humidity;BME280_pressure;Samples;Min_cycle;Max_cycle;Signal;HPM_P1;HPM_P2
2021/04/25 00:01:23;;;;;;;9.20;7.17;;;;;;;;;;3577569;40;20649;-70
2021/04/25 00:03:50;;;;;;;8.05;7.25;;;;;;;;;;3577193;40;20431;-68
2021/04/25 00:06:16;;;;;;;8.50;7.27;;;;;;;;;;3577296;40;20391;-69
2021/04/25 00:08:43;;;;;;;9.23;7.25;;;;;;;;;;3568235;40;20388;-70
2021/04/25 00:11:09;;;;;;;7.13;6.43;;;;;;;;;;3574710;40;20686;-69
2021/04/25 00:13:35;;;;;;;7.20;6.50;;;;;;;;;;3567392;40;20635;-69
2021/04/25 00:16:02;;;;;;;7.93;6.25;;;;;;;;;;3570850;40;20392;-69
2021/04/25 00:18:28;;;;;;;8.87;6.90;;;;;;;;;;3577238;40;20411;-68
2021/04/25 00:20:54;;;;;;;7.50;6.70;;;;;;;;;;3568281;40;20408;-69
2021/04/25 00:23:20;;;;;;;7.38;6.60;;;;;;;;;;3577708;40;20482;-69
2021/04/25 00:25:47;;;;;;;7.72;6.93;;;;;;;;;;3577370;40;20391;-69
2021/04/25 00:28:14;;;;;;;7.50;6.35;;;;;;;;;;3577484;40;20392;-69
2021/04/25 00:30:40;;;;;;;7.30;6.18;;;;;;;;;;3577326;40;20380;-68
2021/04/25 00:33:06;;;;;;;6.85;6.15;;;;;;;;;;3581590;40;20413;-69
2021/04/25 00:35:32;;;;;;;6.90;6.20;;;11.80;99.90;;;;;;3580092;40;20384;-68
2021/04/25 00:37:58;;;;;;;6.50;5.80;;;13.90;95.60;;;;;;3568063;40;20396;-70
2021/04/25 00:40:24;;;;;;;6.72;6.03;;;13.80;95.80;;;;;;3577278;40;20386;-69
2021/04/25 00:42:51;;;;;;;6.32;5.70;;;13.80;95.60;;;;;;3575860;40;20395;-69
2021/04/25 00:45:19;;;;;;;6.70;6.07;;;13.80;95.50;;;;;;3567919;40;20383;-69
2021/04/25 00:47:46;;;;;;;8.20;6.18;;;;;;;;;;3577192;40;20443;-68
2021/04/25 00:50:13;;;;;;;7.30;6.60;;;;;;;;;;3567928;40;20657;-68
2021/04/25 00:52:41;;;;;;;7.60;5.72;;;;;;;;;;3577238;40;20383;-70
2021/04/25 00:55:08;;;;;;;6.97;6.28;;;;;;;;;;3573729;40;20472;-69
2021/04/25 00:57:34;;;;;;;6.85;6.00;;;;;;;;;;3582011;40;20494;-68
2021/04/25 01:00:02;;;;;;;6.90;6.20;;;;;;;;;;3577067;40;20704;-69
2021/04/25 01:02:29;;;;;;;6.97;6.30;;;;;;;;;;3578189;40;20410;-63
2021/04/25 01:07:47;;;;;;;7.97;6.27;;;;;;;;;;3582574;40;20444;-74
2021/04/25 01:10:13;;;;;;;6.50;5.80;;;;;;;;;;3587830;40;20378;-74
2021/04/25 01:12:41;;;;;;;7.55;6.13;;;;;;;;;;3593602;40;20369;-74
2021/04/25 01:15:08;;;;;;;6.10;5.55;;;;;;;;;;3593332;40;20342;-74
2021/04/25 01:17:37;;;;;;;6.63;5.70;;;;;;;;;;3573024;40;20389;-74
2021/04/25 01:20:05;;;;;;;7.05;6.28;;;;;;;;;;3573298;40;20354;-73
2021/04/25 01:22:32;;;;;;;6.25;5.53;;;;;;;;;;3571783;40;20358;-74
2021/04/25 01:24:58;;;;;;;6.97;6.10;;;;;;;;;;3573132;40;20354;-75
2021/04/25 01:27:24;;;;;;;6.50;5.90;;;;;;;;;;3589666;40;20370;-75
2021/04/25 01:29:51;;;;;;;7.53;5.85;;;;;;;;;;3593147;40;20370;-74
2021/04/25 01:32:17;;;;;;;6.47;5.80;;;;;;;;;;3584404;40;20347;-74
2021/04/25 01:34:43;;;;;;;6.65;5.95;;;;;;;;;;3581611;40;20400;-75
2021/04/25 01:37:09;;;;;;;6.03;5.50;;;;;;;;;;3589543;40;20389;-74
2021/04/25 01:39:36;;;;;;;6.72;5.60;;;;;;;;;;3583397;40;20398;-74
2021/04/25 01:42:03;;;;;;;6.72;5.85;;;;;;;;;;3593265;40;20351;-74
2021/04/25 01:44:29;;;;;;;6.55;5.78;;;;;;;;;;3581318;40;20773;-74
2021/04/25 01:46:55;;;;;;;6.43;5.57;;;;;;;;;;3573717;40;20461;-75
2021/04/25 01:49:22;;;;;;;6.53;5.87;;;;;;;;;;3583085;40;20360;-73
2021/04/25 01:51:48;;;;;;;6.03;5.53;;;;;;;;;;3583090;40;20423;-74
2021/04/25 01:54:14;;;;;;;10.15;5.80;;;;;;;;;;3582873;40;20356;-74
2021/04/25 01:56:41;;;;;;;6.80;6.00;;;;;;;;;;3583090;40;20673;-74
2021/04/25 01:59:07;;;;;;;5.90;5.10;;;;;;;;;;3583114;40;20376;-75
2021/04/25 02:01:34;;;;;;;6.07;5.33;;;;;;;;;;3582957;40;20352;-75
2021/04/25 02:04:00;;;;;;;6.67;5.97;;;;;;;;;;3583164;40;20388;-74
2021/04/25 02:06:27;;;;;;;6.90;5.90;;;;;;;;;;3582032;40;20757;-74
2021/04/25 02:08:53;;;;;;;6.70;6.00;;;;;;;;;;3572739;40;20357;-74
2021/04/25 02:11:19;;;;;;;6.20;5.60;;;;;;;;;;3572918;40;20365;-75
2021/04/25 02:13:46;;;;;;;6.43;5.57;;;;;;;;;;3562734;40;20364;-74
2021/04/25 02:16:13;;;;;;;6.22;5.63;;;;;;;;;;3553082;40;20403;-75
2021/04/25 02:18:39;;;;;;;5.35;4.85;;;;;;;;;;3562715;40;20384;-75
2021/04/25 02:21:06;;;;;;;7.73;5.77;;;;;;;;;;3562527;40;20366;-74
2021/04/25 02:23:32;;;;;;;6.18;5.55;;;;;;;;;;3562443;40;20356;-74
2021/04/25 02:25:59;;;;;;;6.70;5.45;;;;;;;;;;3551138;40;20423;-75
2021/04/25 02:28:25;;;;;;;5.80;5.25;;;;;;;;;;3558803;40;20359;-74
2021/04/25 02:30:52;;;;;;;6.07;5.47;;;;;;;;;;3562664;40;20449;-73
2021/04/25 02:33:19;;;;;;;6.28;5.30;;;;;;;;;;3574987;40;20757;-73
2021/04/25 02:35:45;;;;;;;6.22;5.63;;;;;;;;;;3583036;40;20367;-74
2021/04/25 02:38:12;;;;;;;7.00;5.90;;;;;;;;;;3583477;40;20385;-74
2021/04/25 02:40:38;;;;;;;7.65;5.30;;;;;;;;;;3584557;40;20363;-73
2021/04/25 02:43:05;;;;;;;6.32;5.72;;;;;;;;;;3584546;40;20399;-73
2021/04/25 02:45:31;;;;;;;5.63;5.10;;;;;;;;;;3584215;40;20741;-74
2021/04/25 02:48:00;;;;;;;6.45;5.85;;;;;;;;;;3577925;40;20735;-74
2021/04/25 02:50:27;;;;;;;6.07;5.47;;;;;;;;;;3574284;40;20373;-74
2021/04/25 02:52:53;;;;;;;6.35;5.65;;;;;;;;;;3574477;40;20456;-74
2021/04/25 02:55:20;;;;;;;6.43;5.82;;;;;;;;;;3562639;40;20346;-71
2021/04/25 02:57:46;;;;;;;6.28;5.68;;;;;;;;;;3566632;40;20659;-71
2021/04/25 03:00:14;;;;;;;6.25;5.38;;;;;;;;;;3558488;40;20418;-71
2021/04/25 03:02:40;;;;;;;6.10;5.50;;;;;;;;;;3567832;40;20418;-71
2021/04/25 03:05:08;;;;;;;5.97;5.47;;;;;;;;;;3567958;40;20397;-71
2021/04/25 03:07:34;;;;;;;6.35;5.75;;;;;;;;;;3568567;40;20425;-71
2021/04/25 03:10:01;;;;;;;6.10;5.50;;;;;;;;;;3574591;40;20374;-70
2021/04/25 03:12:27;;;;;;;6.00;5.50;;;;;;;;;;3582243;40;20683;-71
2021/04/25 03:14:53;;;;;;;5.70;5.13;;;;;;;;;;3577844;40;20360;-71
2021/04/25 03:17:19;;;;;;;7.90;5.63;;;;;;;;;;3577869;40;20372;-71
2021/04/25 03:19:45;;;;;;;6.97;5.35;;;;;;;;;;3577858;40;20412;-71
2021/04/25 03:22:12;;;;;;;5.65;5.15;;;;;;;;;;3577639;40;20389;-71
2021/04/25 03:24:39;;;;;;;5.80;5.20;;;;;;;;;;3574325;40;20365;-72
2021/04/25 03:27:05;;;;;;;6.75;5.30;;;;;;;;;;3569121;40;20766;-71
2021/04/25 03:29:32;;;;;;;6.05;5.25;;;;;;;;;;3577697;40;20364;-71
2021/04/25 03:31:58;;;;;;;6.55;5.95;;;;;;;;;;3577799;40;20368;-71
2021/04/25 03:34:24;;;;;;;6.72;5.63;;;;;;;;;;3577739;40;20387;-71
2021/04/25 03:36:50;;;;;;;6.25;5.40;;;;;;;;;;3566890;40;20437;-71
2021/04/25 03:39:18;;;;;;;6.07;5.47;;;;;;;;;;3577081;40;20380;-71
2021/04/25 03:41:44;;;;;;;6.50;5.90;;;;;;;;;;3577812;40;20761;-71
2021/04/25 03:44:11;;;;;;;7.97;5.95;;;;;;;;;;3577749;40;20422;-71
2021/04/25 03:46:38;;;;;;;6.45;5.35;;;;;;;;;;3577627;40;20412;-71
2021/04/25 03:49:04;;;;;;;5.68;5.18;;;;;;;;;;3577499;40;20349;-71
2021/04/25 03:51:30;;;;;;;5.20;4.70;;;;;;;;;;3579408;40;20397;-72
2021/04/25 03:53:57;;;;;;;5.55;4.95;;;;;;;;;;3573517;40;20384;-71
2021/04/25 03:56:24;;;;;;;5.97;5.38;;;;;;;;;;3577534;40;20364;-71
2021/04/25 03:58:50;;;;;;;5.97;5.33;;;;;;;;;;3577685;40;20384;-71
2021/04/25 04:01:16;;;;;;;6.93;5.47;;;;;;;;;;3577590;40;20380;-71
2021/04/25 04:03:42;;;;;;;5.38;4.88;;;;;;;;;;3568298;40;20392;-71
2021/04/25 04:06:08;;;;;;;5.57;5.07;;;;;;;;;;3567432;40;20408;-71
2021/04/25 04:08:35;;;;;;;5.65;5.15;;;;;;;;;;3584139;40;20459;-71
2021/04/25 04:11:01;;;;;;;5.70;5.13;;;;;;;;;;3575884;40;20730;-72
2021/04/25 04:13:28;;;;;;;6.00;5.50;;;;;;;;;;3567758;40;20366;-71
2021/04/25 04:15:54;;;;;;;8.15;5.50;;;;;;;;;;3567842;40;20463;-71
2021/04/25 04:18:21;;;;;;;5.30;4.80;;;;;;;;;;3563248;40;20408;-71
2021/04/25 04:20:47;;;;;;;5.75;5.13;;;;;;;;;;3574072;40;20675;-71
2021/04/25 04:23:13;;;;;;;6.03;5.53;;;;;;;;;;3566672;40;20377;-71
2021/04/25 04:25:39;;;;;;;5.85;5.25;;;;;;;;;;3567319;40;20425;-71
2021/04/25 04:28:06;;;;;;;6.18;5.13;;;;;;;;;;3572770;40;20494;-71
2021/04/25 04:30:33;;;;;;;6.57;5.25;;;;;;;;;;3567941;40;20874;-71
2021/04/25 04:33:01;;;;;;;5.93;5.28;;;;;;;;;;3566713;40;20373;-70
2021/04/25 04:35:27;;;;;;;7.00;5.00;;;;;;;;;;3567311;40;20718;-71
2021/04/25 04:37:54;;;;;;;5.40;4.63;;;;;;;;;;3558389;40;20505;-71
2021/04/25 04:40:20;;;;;;;6.23;5.43;;;;;;;;;;3567193;40;20366;-71
2021/04/25 04:42:47;;;;;;;5.65;5.15;;;;;;;;;;3574309;40;20397;-71
2021/04/25 04:45:14;;;;;;;6.15;5.30;;;;;;;;;;3566158;40;20389;-71
2021/04/25 04:47:41;;;;;;;5.97;5.13;;;;;;;;;;3567156;40;20367;-71
2021/04/25 04:50:08;;;;;;;5.63;5.13;;;;;;;;;;3572278;40;20757;-71
2021/04/25 04:52:34;;;;;;;5.82;5.22;;;;;;;;;;3567229;40;20719;-71
2021/04/25 04:55:00;;;;;;;7.10;5.03;;;;;;;;;;3567311;40;20656;-71
2021/04/25 04:57:26;;;;;;;6.57;5.60;;;;;;;;;;3567267;40;20394;-71
2021/04/25 04:59:53;;;;;;;5.80;5.18;;;;;;;;;;3564313;40;20380;-70
2021/04/25 05:02:19;;;;;;;5.40;4.93;;;;;;;;;;3556912;40;20372;-71
2021/04/25 05:04:46;;;;;;;5.43;4.82;;;;;;;;;;3564116;40;20416;-70
2021/04/25 05:07:12;;;;;;;5.43;4.93;;;;;;;;;;3570234;40;20553;-71
2021/04/25 05:09:38;;;;;;;6.28;5.68;;;;;;;;;;3567810;40;20680;-71
2021/04/25 05:12:05;;;;;;;8.45;6.43;;;;;;;;;;3576386;40;20414;-70
2021/04/25 05:14:31;;;;;;;6.55;5.95;;;;;;;;;;3568463;40;20549;-71
2021/04/25 05:16:57;;;;;;;6.27;5.67;;;;;;;;;;3573179;40;20416;-71
2021/04/25 05:19:24;;;;;;;5.72;5.10;;;;;;;;;;3559138;40;20390;-71
2021/04/25 05:21:51;;;;;;;5.40;4.90;;;;;;;;;;3568851;40;20397;-71
2021/04/25 05:24:17;;;;;;;5.85;5.25;;;;;;;;;;3577253;40;20388;-71
2021/04/25 05:26:43;;;;;;;5.90;5.30;;;;;;;;;;3576964;40;20365;-71
2021/04/25 05:29:10;;;;;;;5.70;5.20;;;;;;;;;;3567607;40;20400;-71
2021/04/25 05:31:36;;;;;;;6.07;5.10;;;;;;;;;;3577248;40;20745;-71
2021/04/25 05:34:03;;;;;;;5.60;4.55;;;;;;;;;;3576867;40;20380;-71
2021/04/25 05:36:29;;;;;;;5.43;4.85;;;;;;;;;;3576062;40;20375;-71
2021/04/25 05:38:56;;;;;;;5.80;5.20;;;;;;;;;;3559246;40;20452;-71
2021/04/25 05:41:22;;;;;;;5.95;5.13;;;;;;;;;;3583156;40;20368;-71
2021/04/25 05:43:50;;;;;;;7.28;5.32;;;;;;;;;;3567300;40;20414;-71
2021/04/25 05:46:16;;;;;;;6.22;5.35;;;;;;;;;;3571157;40;20749;-71
2021/04/25 05:48:43;;;;;;;5.95;5.35;;;;;;;;;;3577456;40;20356;-71
2021/04/25 05:51:10;;;;;;;6.05;5.38;;;;;;;;;;3576893;40;20375;-71
2021/04/25 05:53:36;;;;;;;5.97;5.47;;;;;;;;;;3575391;40;20392;-71
2021/04/25 05:56:03;;;;;;;6.25;5.65;;;;;;;;;;3577107;40;20428;-71
2021/04/25 05:58:30;;;;;;;6.03;5.15;;;;;;;;;;3576878;40;20392;-71
2021/04/25 06:00:56;;;;;;;5.55;4.90;;;;;;;;;;3582148;40;20406;-71
2021/04/25 06:03:22;;;;;;;6.53;5.47;;;;;;;;;;3583815;40;20840;-71
2021/04/25 06:05:50;;;;;;;6.00;5.40;;;;;;;;;;3576048;40;21805;-72
2021/04/25 06:08:16;;;;;;;5.78;5.28;;;;;;;;;;3570095;40;20411;-71
2021/04/25 06:10:42;;;;;;;5.82;5.18;;;;;;;;;;3580348;40;20374;-71
2021/04/25 06:13:09;;;;;;;6.15;5.55;;;;;;;;;;3585591;40;20609;-71
2021/04/25 06:15:35;;;;;;;7.00;5.75;;;;;;;;;;3566401;40;20404;-71
2021/04/25 06:18:03;;;;;;;6.87;5.87;;;;;;;;;;3571646;40;20420;-71
2021/04/25 06:20:29;;;;;;;7.55;6.32;;;;;;;;;;3574357;40;20486;-70
2021/04/25 06:22:55;;;;;;;8.27;6.70;;;;;;;;;;3565568;40;20405;-71
2021/04/25 06:25:22;;;;;;;7.43;6.72;;;;;;;;;;3576584;40;20878;-71
2021/04/25 06:27:48;;;;;;;8.10;7.18;;;;;;;;;;3581905;40;20389;-71
2021/04/25 06:30:16;;;;;;;8.32;6.80;;;;;;;;;;3586078;40;20374;-71
2021/04/25 06:32:42;;;;;;;7.72;6.93;;;;;;;;;;3575459;40;20807;-71
2021/04/25 06:35:11;;;;;;;6.88;6.00;;;;;;;;;;3569737;40;20362;-71
2021/04/25 06:37:37;;;;;;;6.70;6.00;;;;;;;;;;3585472;40;20371;-71
2021/04/25 06:40:04;;;;;;;9.43;6.22;;;;;;;;;;3577810;40;20379;-71
2021/04/25 06:42:31;;;;;;;8.13;6.57;;;;;;;;;;3557217;40;20698;-71
2021/04/25 06:44:57;;;;;;;7.40;6.47;;;;;;;;;;3565463;40;20396;-71
2021/04/25 06:47:25;;;;;;;6.63;5.93;;;;;;;;;;3572399;40;20400;-70
2021/04/25 06:49:51;;;;;;;7.30;6.45;;;;;;;;;;3567383;40;20411;-71
2021/04/25 06:52:17;;;;;;;7.70;6.13;;;;;;;;;;3565427;40;20397;-71
2021/04/25 06:54:43;;;;;;;7.30;6.03;;;;;;;;;;3580326;40;20366;-70
2021/04/25 06:57:09;;;;;;;7.20;6.17;;;;;;;;;;3577990;40;20435;-71
2021/04/25 06:59:36;;;;;;;6.17;5.53;;;;;;;;;;3573406;40;20370;-71
2021/04/25 07:02:02;;;;;;;5.47;4.95;;;;;;;;;;3577990;40;20531;-71
2021/04/25 07:04:29;;;;;;;5.82;5.22;;;;;;;;;;3576373;40;20753;-70
2021/04/25 07:06:55;;;;;;;5.28;4.40;;;;;;;;;;3575672;40;20382;-71
2021/04/25 07:09:21;;;;;;;5.18;4.68;;;;;;;;;;3569712;40;20405;-71
2021/04/25 07:11:48;;;;;;;5.50;5.00;;;;;;;;;;3570704;40;20431;-71
2021/04/25 07:14:14;;;;;;;6.07;5.38;;;;;;;;;;3579839;40;20374;-71
2021/04/25 07:16:40;;;;;;;6.63;5.50;;;;;;;;;;3576447;40;20395;-70
2021/04/25 07:19:06;;;;;;;6.65;5.03;;;;;;;;;;3569448;40;20744;-70
2021/04/25 07:21:33;;;;;;;6.18;5.15;;;;;;;;;;3574501;40;20517;-71
2021/04/25 07:23:59;;;;;;;6.97;5.85;;;;;;;;;;3559794;40;20401;-71
2021/04/25 07:26:26;;;;;;;5.60;5.10;;;;;;;;;;3558538;40;20662;-71
2021/04/25 07:28:52;;;;;;;6.47;5.68;;;;;;;;;;3567740;40;20749;-70
2021/04/25 07:31:18;;;;;;;7.35;5.47;;;;;;;;;;3572233;40;20399;-71
2021/04/25 07:33:45;;;;;;;7.40;5.30;;;;;;;;;;3570038;40;20370;-71
2021/04/25 07:36:11;;;;;;;12.77;9.68;;;;;;;;;;3567646;40;20465;-70
2021/04/25 07:38:38;;;;;;;14.18;10.52;;;;;;;;;;3567565;40;20378;-70
2021/04/25 07:41:05;;;;;;;15.57;10.10;;;;;;;;;;3557874;40;20390;-71
2021/04/25 07:43:31;;;;;;;14.52;10.30;;;;;;;;;;3567703;40;20386;-70
2021/04/25 07:46:00;;;;;;;13.70;10.35;;;;;;;;;;3569235;40;20460;-70
2021/04/25 07:48:27;;;;;;;14.82;10.45;;;;;;;;;;3562782;40;20377;-70
2021/04/25 07:50:53;;;;;;;12.20;9.97;;;;;;;;;;3568249;40;20747;-71
2021/04/25 07:53:19;;;;;;;14.63;10.52;;;;;;;;;;3573215;40;20374;-71
2021/04/25 07:55:46;;;;;;;14.68;11.18;;;;;;;;;;3570037;40;20379;-70
2021/04/25 07:58:13;;;;;;;13.97;12.27;;;;;;;;;;3565912;40;20386;-71
2021/04/25 08:00:39;;;;;;;15.98;12.63;;;;;;;;;;3568743;40;20371;-70
2021/04/25 08:03:06;;;;;;;14.63;11.88;;;;;;;;;;3560987;40;21097;-70
2021/04/25 08:05:32;;;;;;;17.83;13.90;;;;;;;;;;3567442;40;20391;-70
2021/04/25 08:07:58;;;;;;;17.63;13.13;;;;;;;;;;3558256;40;20656;-71
2021/04/25 08:10:25;;;;;;;18.05;14.02;;;;;;;;;;3567473;40;20374;-70
2021/04/25 08:12:52;;;;;;;17.58;13.20;;;;;;;;;;3567327;40;20375;-71
2021/04/25 08:15:20;;;;;;;16.20;12.97;;;;;;;;;;3567360;40;20370;-71
2021/04/25 08:17:47;;;;;;;20.13;14.55;;;;;;;;;;3569952;40;20381;-71
2021/04/25 08:20:14;;;;;;;14.18;12.20;;;;;;;;;;3557023;40;20407;-70
2021/04/25 08:22:40;;;;;;;17.05;13.20;;;;;;;;;;3570499;40;22263;-70
2021/04/25 08:25:07;;;;;;;15.68;12.18;;;;;;;;;;3575262;40;20529;-70
2021/04/25 08:27:33;;;;;;;15.48;13.35;;;;;;;;;;3570776;40;20434;-71
2021/04/25 08:30:00;;;;;;;16.80;13.48;;;;;;;;;;3583680;40;20365;-70
2021/04/25 08:32:26;;;;;;;18.13;13.60;;;;;;;;;;3575498;40;20393;-71
2021/04/25 08:34:53;;;;;;;19.83;14.40;;;;;;;;;;3580255;40;20364;-71
2021/04/25 08:37:19;;;;;;;17.23;13.77;;;;;;;;;;3578725;40;20765;-70
2021/04/25 08:39:45;;;;;;;19.38;14.18;;;;;;;;;;3578122;40;20467;-69
2021/04/25 08:42:13;;;;;;;19.27;13.93;;;;;;;;;;3577970;40;20362;-70
2021/04/25 08:44:42;;;;;;;19.15;14.07;;;19.50;94.80;;;;;;3577133;40;20368;-70
2021/04/25 08:47:09;;;;;;;22.42;16.08;;;19.10;85.50;;;;;;3577101;40;20375;-69
2021/04/25 08:49:35;;;;;;;19.27;14.43;;;;;;;;;;3576953;40;20391;-70
2021/04/25 08:52:02;;;;;;;20.00;14.93;;;;;;;;;;3580100;40;20420;-71
2021/04/25 08:54:28;;;;;;;21.33;15.10;;;;;;;;;;3566227;40;20398;-70
2021/04/25 08:56:58;;;;;;;23.02;16.55;;;;;;;;;;3563947;40;20537;-71
2021/04/25 08:59:24;;;;;;;23.27;16.73;;;;;;;;;;3576872;40;20651;-71
2021/04/25 09:01:50;;;;;;;22.42;16.05;;;;;;;;;;3574262;40;21255;-71
2021/04/25 09:04:18;;;;;;;21.92;15.63;;;;;;;;;;3579661;40;20401;-71
2021/04/25 09:06:57;;;;;;;21.23;14.37;;;;;;;;;;3575791;40;20761;-70
2021/04/25 09:09:24;;;;;;;20.38;14.43;;;;;;;;;;3582408;40;20644;-70
2021/04/25 09:11:50;;;;;;;18.80;14.60;;;;;;;;;;3569414;40;20475;-71
2021/04/25 09:14:18;;;;;;;21.45;15.50;;;;;;;;;;3581105;40;20364;-70
2021/04/25 09:16:47;;;;;;;19.70;15.02;;;;;;;;;;3580068;40;20356;-70
2021/04/25 09:19:13;;;;;;;18.95;14.27;;;;;;;;;;3568549;40;20408;-71
2021/04/25 09:21:54;;;;;;;18.23;14.35;;;;;;;;;;3580511;40;20635;-72
2021/04/25 09:24:21;;;;;;;19.50;14.77;;;;;;;;;;3578062;40;20732;-71
2021/04/25 09:26:47;;;;;;;18.90;13.50;;;;;;;;;;3575416;40;20499;-71
2021/04/25 09:29:13;;;;;;;19.10;13.77;;;19.00;82.50;;;;;;3578711;40;20426;-71
2021/04/25 09:31:40;;;;;;;17.55;13.60;;;;;;;;;;3573561;40;20750;-71
2021/04/25 09:34:06;;;;;;;17.85;13.30;;;;;;;;;;3577974;40;20364;-71
2021/04/25 09:36:33;;;;;;;15.65;11.65;;;;;;;;;;3572231;40;20399;-71
2021/04/25 09:39:10;;;;;;;13.83;10.87;;;;;;;;;;3570792;40;20385;-71
2021/04/25 09:41:37;;;;;;;15.00;10.82;;;;;;;;;;3574540;40;20454;-70
2021/04/25 09:44:03;;;;;;;16.50;11.93;;;;;;;;;;3575476;40;20375;-70
2021/04/25 09:46:44;;;;;;;16.48;12.65;;;;;;;;;;3579091;40;20374;-70
2021/04/25 09:49:10;;;;;;;16.60;12.30;;;20.90;76.30;;;;;;3573215;40;20404;-71
2021/04/25 09:51:42;;;;;;;16.48;12.88;;;21.80;71.70;;;;;;3573793;40;20395;-70
2021/04/25 09:54:10;;;;;;;16.23;12.35;;;21.80;72.20;;;;;;3574387;40;20414;-70
2021/04/25 09:56:38;;;;;;;15.90;11.90;;;;;;;;;;3567358;40;20408;-70
2021/04/25 09:59:06;;;;;;;17.23;13.10;;;21.70;72.80;;;;;;3585274;40;20693;-70
2021/04/25 10:01:34;;;;;;;17.40;11.82;;;21.80;72.60;;;;;;3567135;40;20519;-70
2021/04/25 10:04:02;;;;;;;14.82;11.10;;;21.80;73.00;;;;;;3576444;40;20392;-71
2021/04/25 10:06:29;;;;;;;15.63;10.63;;;;;;;;;;3574142;40;20371;-70
2021/04/25 10:08:56;;;;;;;17.40;12.70;;;;;;;;;;3573722;40;20479;-70
2021/04/25 10:11:29;;;;;;;20.08;12.73;;;;;;;;;;3581083;40;20384;-70
2021/04/25 10:13:56;;;;;;;18.45;12.90;;;;;;;;;;3566897;40;20380;-70
2021/04/25 10:16:22;;;;;;;17.27;11.40;;;;;;;;;;3562219;40;20379;-70
2021/04/25 10:18:49;;;;;;;16.48;11.60;;;22.20;69.70;;;;;;3581282;40;20380;-71
2021/04/25 10:21:15;;;;;;;17.40;12.50;;;22.10;71.50;;;;;;3575260;40;20426;-71
2021/04/25 10:23:41;;;;;;;19.30;12.18;;;22.30;66.20;;;;;;3580868;40;20381;-71
2021/04/25 10:26:11;;;;;;;18.65;12.07;;;22.10;67.50;;;;;;3560157;40;20405;-71
2021/04/25 10:28:43;;;;;;;18.52;11.90;;;22.20;67.20;;;;;;3565982;40;20423;-71
2021/04/25 10:31:12;;;;;;;20.30;11.10;;;22.00;63.70;;;;;;3576749;40;20420;-70
2021/04/25 10:33:56;;;;;;;18.60;11.90;;;22.00;66.00;;;;;;3572414;40;20399;-70
2021/04/25 10:36:22;;;;;;;19.08;13.00;;;22.20;66.40;;;;;;3576048;40;20455;-69
2021/04/25 10:38:49;;;;;;;21.90;12.32;;;22.30;65.40;;;;;;3573305;40;20409;-69
2021/04/25 10:41:23;;;;;;;17.67;11.55;;;22.20;64.00;;;;;;3577825;40;20371;-70
2021/04/25 10:43:58;;;;;;;17.67;11.55;;;22.00;63.70;;;;;;3574948;40;20407;-70
2021/04/25 10:46:24;;;;;;;19.07;11.30;;;22.20;64.40;;;;;;3570638;40;20809;-70
2021/04/25 10:48:50;;;;;;;16.03;11.67;;;22.40;65.40;;;;;;3576131;40;20372;-70
2021/04/25 10:51:18;;;;;;;14.32;10.32;;;22.80;68.40;;;;;;3577363;40;20438;-70
2021/04/25 10:53:46;;;;;;;15.85;11.20;;;;;;;;;;3577428;40;20380;-69
2021/04/25 10:56:30;;;;;;;17.85;12.30;;;;;;;;;;3575215;40;20438;-70
2021/04/25 10:59:27;;;;;;;17.40;12.23;;;;;;;;;;3560080;40;20425;-71
2021/04/25 11:01:55;;;;;;;20.00;11.63;;;;;;;;;;3575078;40;20370;-70
2021/04/25 11:04:41;;;;;;;18.33;13.18;;;;;;;;;;3579778;40;20395;-70
2021/04/25 11:07:33;;;;;;;18.15;11.95;;;;;;;;;;3539307;40;20422;-71
2021/04/25 11:09:59;;;;;;;19.67;12.55;;;;;;;;;;3575005;40;20501;-70
2021/04/25 11:12:44;;;;;;;15.97;11.60;;;;;;;;;;3573380;40;20376;-70
2021/04/25 11:15:11;;;;;;;15.27;10.73;;;;;;;;;;3574023;40;20407;-71
2021/04/25 11:17:38;;;;;;;17.50;11.77;;;;;;;;;;3574915;40;20465;-72
2021/04/25 11:20:23;;;;;;;21.17;12.93;;;;;;;;;;3568755;40;20401;-71
2021/04/25 11:22:49;;;;;;;19.60;13.02;;;;;;;;;;3564031;40;20354;-71
2021/04/25 11:25:28;;;;;;;21.15;13.43;;;;;;;;;;3563527;40;20394;-70
2021/04/25 11:27:54;;;;;;;19.52;13.27;;;;;;;;;;3560275;40;20718;-70
2021/04/25 11:30:41;;;;;;;23.08;14.32;;;;;;;;;;3563181;40;20428;-70
2021/04/25 11:33:26;;;;;;;20.10;13.48;;;;;;;;;;3555459;40;20434;-70
2021/04/25 11:35:53;;;;;;;18.03;12.20;;;;;;;;;;3556301;40;20435;-70
2021/04/25 11:38:20;;;;;;;18.60;13.10;;;;;;;;;;3552968;40;20403;-70
2021/04/25 11:40:47;;;;;;;18.90;13.50;;;;;;;;;;3548158;40;20459;-70
2021/04/25 11:43:13;;;;;;;22.45;14.60;;;;;;;;;;3553351;40;20477;-70
2021/04/25 11:45:39;;;;;;;21.10;14.50;;;;;;;;;;3549909;40;20399;-71
2021/04/25 11:48:08;;;;;;;18.45;12.73;;;;;;;;;;3567379;40;20378;-70
2021/04/25 11:50:35;;;;;;;19.73;13.43;;;;;;;;;;3556490;40;20673;-71
2021/04/25 11:53:03;;;;;;;18.58;12.95;;;;;;;;;;3557213;40;20702;-71
2021/04/25 11:55:30;;;;;;;20.00;13.63;;;;;;;;;;3566642;40;20376;-70
2021/04/25 11:57:57;;;;;;;17.25;12.18;;;;;;;;;;3572216;40;20375;-70
2021/04/25 12:00:25;;;;;;;16.00;11.45;;;;;;;;;;3565226;40;20415;-70
2021/04/25 12:02:53;;;;;;;14.43;10.98;;;;;;;;;;3573173;40;20377;-70
2021/04/25 12:05:21;;;;;;;16.67;11.48;;;;;;;;;;3567180;40;20381;-70
2021/04/25 12:07:48;;;;;;;18.83;13.32;;;;;;;;;;3557965;40;20406;-70
2021/04/25 12:10:17;;;;;;;17.50;11.37;;;;;;;;;;3575296;40;20368;-70
2021/04/25 12:12:57;;;;;;;20.70;13.40;;;;;;;;;;3562457;40;20397;-70
2021/04/25 12:15:24;;;;;;;17.05;11.68;;;;;;;;;;3544644;40;20486;-71
2021/04/25 12:17:54;;;;;;;15.80;10.70;;;;;;;;;;3537381;40;20521;-70
2021/04/25 12:20:20;;;;;;;20.48;13.50;;;;;;;;;;3545843;40;20381;-69
2021/04/25 12:22:47;;;;;;;18.25;11.90;;;;;;;;;;3545916;40;20381;-69
2021/04/25 12:25:13;;;;;;;19.95;13.02;;;;;;;;;;3550999;40;20389;-70
2021/04/25 12:27:48;;;;;;;17.40;11.45;;;;;;;;;;3545681;40;20416;-70
2021/04/25 12:30:18;;;;;;;19.10;12.80;;;;;;;;;;3545101;40;20385;-70
2021/04/25 12:32:45;;;;;;;13.85;10.10;;;;;;;;;;3548795;40;20503;-71
2021/04/25 12:35:11;;;;;;;14.23;9.80;;;;;;;;;;3547034;40;20419;-70
2021/04/25 12:37:38;;;;;;;18.60;12.75;;;;;;;;;;3555503;40;20473;-70
2021/04/25 12:40:05;;;;;;;16.87;11.17;;;;;;;;;;3552726;40;20808;-70
2021/04/25 12:42:31;;;;;;;17.97;11.57;;;;;;;;;;3556755;40;20378;-70
2021/04/25 12:44:59;;;;;;;19.40;11.20;;;;;;;;;;3560587;40;20382;-70
2021/04/25 12:47:28;;;;;;;14.23;10.18;;;;;;;;;;3556629;40;20411;-70
2021/04/25 12:49:55;;;;;;;16.63;10.20;;;;;;;;;;3566993;40;20387;-70
2021/04/25 12:52:33;;;;;;;15.32;10.55;;;;;;;;;;3566550;40;20374;-70
2021/04/25 12:55:00;;;;;;;14.93;10.07;;;;;;;;;;3565256;40;20433;-70
2021/04/25 12:57:27;;;;;;;17.48;10.52;;;;;;;;;;3557547;40;20399;-70
2021/04/25 12:59:53;;;;;;;18.70;10.90;;;;;;;;;;3565742;40;20787;-70
2021/04/25 13:02:20;;;;;;;14.80;9.57;;;;;;;;;;3564586;40;20373;-70
2021/04/25 13:04:47;;;;;;;14.33;9.70;;;24.90;61.00;;;;;;3563478;40;20689;-70
2021/04/25 13:07:34;;;;;;;11.25;7.25;;;26.50;50.10;;;;;;3566005;40;20454;-70
2021/04/25 13:10:25;;;;;;;12.93;8.68;;;26.20;52.00;;;;;;3556924;40;20763;-69
2021/04/25 13:12:53;;;;;;;13.88;9.00;;;26.00;50.30;;;;;;3525414;40;20788;-69
2021/04/25 13:15:30;;;;;;;10.77;7.55;;;26.10;49.20;;;;;;3527166;40;20391;-70
2021/04/25 13:17:59;;;;;;;11.27;7.45;;;26.00;50.30;;;;;;3524901;40;20900;-70
2021/04/25 13:20:29;;;;;;;11.60;7.22;;;26.30;49.60;;;;;;3529812;40;20408;-70
2021/04/25 13:22:58;;;;;;;10.80;7.95;;;26.70;47.80;;;;;;3516596;40;20420;-70
2021/04/25 13:25:26;;;;;;;11.43;7.43;;;26.20;48.10;;;;;;3525513;40;20786;-70
2021/04/25 13:27:58;;;;;;;9.45;6.03;;;25.80;46.00;;;;;;3527138;40;20408;-69
2021/04/25 13:30:24;;;;;;;13.23;7.72;;;;;;;;;;3508629;40;20415;-70
2021/04/25 13:32:50;;;;;;;12.07;8.18;;;25.90;47.80;;;;;;3513616;40;20425;-70
2021/04/25 13:35:17;;;;;;;11.02;7.40;;;25.60;48.80;;;;;;3515817;40;20400;-70
2021/04/25 13:37:46;;;;;;;9.93;7.30;;;25.60;47.40;;;;;;3514703;40;20409;-70
2021/04/25 13:40:12;;;;;;;10.55;6.80;;;25.70;48.90;;;;;;3514954;40;20398;-70
2021/04/25 13:42:38;;;;;;;11.55;7.72;;;26.10;48.40;;;;;;3515178;40;20887;-69
2021/04/25 13:45:06;;;;;;;10.30;6.22;;;26.00;47.20;;;;;;3515063;40;20421;-70
2021/04/25 13:47:32;;;;;;;12.43;7.30;;;26.20;47.90;;;;;;3515781;40;20795;-70
2021/04/25 13:49:58;;;;;;;8.95;6.30;;;26.20;46.80;;;;;;3532708;40;20456;-70
2021/04/25 13:52:26;;;;;;;10.30;6.25;;;26.20;48.10;;;;;;3535151;40;20414;-69
2021/04/25 13:54:52;;;;;;;7.18;5.40;;;26.10;46.60;;;;;;3550609;40;20383;-69
2021/04/25 13:57:20;;;;;;;7.85;5.00;;;26.00;46.00;;;;;;3555414;40;20398;-70
2021/04/25 13:59:47;;;;;;;8.07;5.18;;;26.10;47.40;;;;;;3554353;40;20409;-70
2021/04/25 14:02:13;;;;;;;10.57;6.47;;;26.30;46.30;;;;;;3570749;40;20386;-70
2021/04/25 14:04:39;;;;;;;6.35;4.68;;;26.30;44.50;;;;;;3574404;40;20516;-70
2021/04/25 14:07:05;;;;;;;16.23;12.25;;;26.00;45.90;;;;;;3576409;40;20632;-70
2021/04/25 14:09:32;;;;;;;10.30;6.65;;;;;;;;;;3576674;40;20478;-70
2021/04/25 14:11:59;;;;;;;8.20;5.88;;;;;;;;;;3573914;40;20453;-70
2021/04/25 14:14:28;;;;;;;8.60;5.27;;;;;;;;;;3574947;40;20372;-70
2021/04/25 14:16:54;;;;;;;7.72;4.90;;;;;;;;;;3564243;40;20393;-70
2021/04/25 14:19:21;;;;;;;7.07;4.97;;;;;;;;;;3568484;40;20844;-70